createdAt,value
2018-11-13T00:02:09.059Z,94.10
2018-11-13T00:04:43.788Z,94.10
2018-11-13T00:07:18.791Z,93.80
2018-11-13T00:09:54.461Z,94.20
2018-11-13T00:12:29.110Z,94.40
2018-11-13T00:15:05.238Z,94.60
2018-11-13T00:17:39.920Z,94.10
2018-11-13T00:20:16.072Z,93.90
2018-11-13T00:22:51.626Z,93.70
2018-11-13T00:25:26.770Z,93.60
2018-11-13T00:28:01.495Z,93.50
2018-11-13T00:30:36.631Z,93.50
2018-11-13T00:33:11.453Z,93.50
2018-11-13T00:35:46.488Z,93.70
2018-11-13T00:38:21.835Z,93.80
2018-11-13T00:40:56.630Z,93.60
2018-11-13T00:43:31.423Z,93.60
2018-11-13T00:46:07.244Z,93.40
2018-11-13T00:48:42.404Z,93.60
2018-11-13T00:51:18.377Z,93.80
2018-11-13T00:53:53.394Z,94.00
2018-11-13T00:56:28.466Z,93.90
2018-11-13T00:59:04.144Z,93.90
2018-11-13T01:01:38.963Z,93.80
2018-11-13T01:04:14.643Z,93.80
2018-11-13T01:06:49.552Z,93.70
2018-11-13T01:09:24.483Z,93.70
2018-11-13T01:11:59.763Z,93.70
2018-11-13T01:14:34.694Z,93.90
2018-11-13T01:17:10.165Z,94.10
2018-11-13T01:19:45.220Z,94.10
2018-11-13T01:22:20.008Z,94.00
2018-11-13T01:24:55.317Z,94.10
2018-11-13T01:27:30.158Z,94.00
2018-11-13T01:30:07.122Z,94.00
2018-11-13T01:32:42.647Z,94.00
2018-11-13T01:35:18.485Z,94.20
2018-11-13T01:37:53.432Z,94.20
2018-11-13T01:40:29.042Z,94.20
2018-11-13T01:43:04.103Z,94.10
2018-11-13T01:45:39.052Z,94.30
2018-11-13T01:48:14.073Z,94.20
2018-11-13T01:50:49.108Z,94.10
2018-11-13T01:53:23.829Z,94.40
2018-11-13T01:55:59.520Z,94.50
2018-11-13T01:58:34.440Z,94.70
2018-11-13T02:01:09.445Z,94.50
2018-11-13T02:03:44.479Z,94.30
2018-11-13T02:06:19.322Z,94.40
2018-11-13T02:08:54.347Z,94.50
2018-11-13T02:11:29.081Z,94.40
2018-11-13T02:14:04.209Z,94.30
2018-11-13T02:16:39.045Z,94.40
2018-11-13T02:19:14.091Z,94.30
2018-11-13T02:21:48.818Z,94.30
2018-11-13T02:24:23.903Z,94.30
2018-11-13T02:26:59.134Z,94.30
2018-11-13T02:29:33.919Z,94.20
2018-11-13T02:32:09.135Z,94.00
2018-11-13T02:34:44.154Z,94.20
2018-11-13T02:37:19.662Z,94.30
2018-11-13T02:39:54.402Z,94.30
2018-11-13T02:42:29.587Z,94.70
2018-11-13T02:45:05.164Z,94.50
2018-11-13T02:47:40.790Z,94.40
2018-11-13T02:50:20.027Z,94.50
2018-11-13T02:52:55.734Z,94.50
2018-11-13T02:55:30.813Z,94.60
2018-11-13T02:58:06.265Z,94.80
2018-11-13T03:00:41.310Z,94.80
2018-11-13T03:03:16.972Z,94.90
2018-11-13T03:05:51.784Z,94.90
2018-11-13T03:08:26.887Z,94.90
2018-11-13T03:11:02.237Z,94.90
2018-11-13T03:13:37.655Z,94.80
2018-11-13T03:16:12.498Z,95.10
2018-11-13T03:18:47.650Z,95.10
2018-11-13T03:21:22.428Z,95.60
2018-11-13T03:23:57.331Z,95.50
2018-11-13T03:26:32.384Z,95.50
2018-11-13T03:29:07.153Z,95.60
2018-11-13T03:31:42.116Z,95.80
2018-11-13T03:34:17.022Z,95.90
2018-11-13T03:36:52.324Z,96.00
2018-11-13T03:39:27.202Z,96.10
2018-11-13T03:42:02.213Z,96.20
2018-11-13T03:44:37.106Z,96.20
2018-11-13T03:47:13.321Z,96.20
2018-11-13T03:49:48.360Z,96.20
2018-11-13T03:52:23.940Z,96.60
2018-11-13T03:54:58.698Z,96.30
2018-11-13T03:57:33.749Z,96.30
2018-11-13T04:00:12.354Z,96.40
2018-11-13T04:02:47.701Z,96.50
2018-11-13T04:05:22.898Z,96.70
2018-11-13T04:07:57.759Z,96.80
2018-11-13T04:10:33.331Z,96.80
2018-11-13T04:13:08.171Z,96.80
2018-11-13T04:15:43.019Z,97.00
2018-11-13T04:18:18.577Z,97.20
2018-11-13T04:20:53.544Z,97.10
2018-11-13T04:23:28.642Z,97.20
2018-11-13T04:26:03.447Z,97.20
2018-11-13T04:28:38.313Z,97.40
2018-11-13T04:31:13.690Z,97.60
2018-11-13T04:33:49.614Z,97.20
2018-11-13T04:36:25.154Z,97.30
2018-11-13T04:38:59.835Z,96.80
2018-11-13T04:41:35.062Z,96.80
2018-11-13T04:44:09.815Z,96.70
2018-11-13T04:46:45.063Z,96.80
2018-11-13T04:49:21.086Z,96.70
2018-11-13T04:51:55.997Z,96.50
2018-11-13T04:54:30.859Z,96.40
2018-11-13T04:57:07.082Z,96.30
2018-11-13T04:59:42.767Z,96.10
2018-11-13T05:02:17.820Z,96.10
2018-11-13T05:04:52.447Z,96.30
2018-11-13T05:07:28.030Z,96.40
2018-11-13T05:10:03.320Z,96.20
2018-11-13T05:12:38.327Z,96.00
2018-11-13T05:15:13.786Z,96.50
2018-11-13T05:17:48.578Z,96.90
2018-11-13T05:20:23.853Z,97.00
2018-11-13T05:23:07.636Z,97.30
2018-11-13T05:25:42.720Z,97.60
2018-11-13T05:28:17.690Z,97.40
2018-11-13T05:30:52.801Z,97.80
2018-11-13T05:33:27.799Z,97.90
2018-11-13T05:36:02.506Z,97.80
2018-11-13T05:38:37.289Z,98.20
2018-11-13T05:41:12.034Z,98.50
2018-11-13T05:43:47.010Z,98.50
2018-11-13T05:46:22.807Z,98.50
2018-11-13T05:48:57.650Z,98.50
2018-11-13T05:51:32.725Z,98.70
2018-11-13T05:54:07.478Z,98.80
2018-11-13T05:56:49.697Z,99.10
2018-11-13T05:59:24.567Z,99.10
2018-11-13T06:02:00.167Z,99.10
2018-11-13T06:04:34.987Z,99.10
2018-11-13T06:07:10.117Z,99.00
2018-11-13T06:09:45.218Z,99.10
2018-11-13T06:12:19.966Z,99.50
2018-11-13T06:14:54.970Z,99.50
2018-11-13T06:17:30.865Z,99.60
2018-11-13T06:20:08.106Z,99.20
2018-11-13T06:22:43.579Z,99.40
2018-11-13T06:25:19.062Z,99.50
2018-11-13T06:27:54.673Z,99.40
2018-11-13T06:30:30.095Z,99.30
2018-11-13T06:33:06.277Z,98.90
2018-11-13T06:35:41.213Z,99.20
2018-11-13T06:38:15.937Z,99.20
2018-11-13T06:40:50.886Z,99.20
2018-11-13T06:43:25.829Z,99.10
2018-11-13T06:46:00.609Z,99.20
2018-11-13T06:48:35.759Z,99.10
2018-11-13T06:51:11.166Z,99.30
2018-11-13T06:53:57.295Z,99.40
2018-11-13T06:56:32.734Z,99.40
2018-11-13T06:59:07.671Z,99.40
2018-11-13T07:01:42.502Z,99.40
2018-11-13T07:04:17.288Z,99.40
2018-11-13T07:06:52.276Z,99.40
2018-11-13T07:09:27.029Z,99.20
2018-11-13T07:12:02.115Z,99.20
2018-11-13T07:14:36.834Z,99.10
2018-11-13T07:17:12.145Z,99.10
2018-11-13T07:19:46.865Z,99.30
2018-11-13T07:22:21.579Z,99.10
2018-11-13T07:24:57.490Z,99.00
2018-11-13T07:27:32.847Z,99.10
2018-11-13T07:30:10.335Z,98.60
2018-11-13T07:32:45.165Z,98.60
2018-11-13T07:35:21.002Z,98.60
2018-11-13T07:37:58.013Z,98.20
2018-11-13T07:40:32.757Z,98.10
2018-11-13T07:43:08.269Z,98.10
2018-11-13T07:45:43.511Z,97.90
2018-11-13T07:48:19.142Z,97.80
2018-11-13T07:50:53.993Z,98.00
2018-11-13T07:53:29.191Z,98.00
2018-11-13T07:56:04.291Z,97.70
2018-11-13T07:58:39.736Z,97.40
2018-11-13T08:01:14.595Z,97.20
2018-11-13T08:03:49.651Z,97.10
2018-11-13T08:06:24.560Z,96.90
2018-11-13T08:09:00.450Z,97.40
2018-11-13T08:11:35.428Z,97.50
2018-11-13T08:14:10.117Z,97.50
2018-11-13T08:16:44.946Z,97.20
2018-11-13T08:19:19.640Z,97.10
2018-11-13T08:21:54.635Z,97.10
2018-11-13T08:24:29.803Z,97.20
2018-11-13T08:27:05.219Z,97.30
2018-11-13T08:29:40.034Z,97.00
2018-11-13T08:32:15.127Z,96.90
2018-11-13T08:34:50.124Z,97.30
2018-11-13T08:37:25.243Z,97.60
2018-11-13T08:40:00.218Z,97.30
2018-11-13T08:42:34.902Z,96.80
2018-11-13T08:45:10.466Z,96.70
2018-11-13T08:47:45.578Z,96.60
2018-11-13T08:50:20.977Z,95.80
2018-11-13T08:52:57.388Z,95.90
2018-11-13T08:55:32.848Z,96.10
2018-11-13T08:58:07.717Z,96.10
2018-11-13T09:00:42.377Z,95.70
2018-11-13T09:03:17.698Z,95.70
2018-11-13T09:05:52.512Z,95.30
2018-11-13T09:08:27.168Z,95.50
2018-11-13T09:11:01.898Z,95.30
2018-11-13T09:13:36.751Z,94.70
2018-11-13T09:16:11.909Z,94.90
2018-11-13T09:18:47.332Z,94.70
2018-11-13T09:21:22.118Z,94.40
2018-11-13T09:23:57.210Z,94.80
2018-11-13T09:26:32.822Z,94.70
2018-11-13T09:29:08.420Z,94.60
2018-11-13T09:31:43.851Z,94.40
2018-11-13T09:34:19.966Z,94.60
2018-11-13T09:36:54.729Z,94.60
2018-11-13T09:39:29.564Z,94.70
2018-11-13T09:42:05.190Z,94.30
2018-11-13T09:44:40.849Z,94.20
2018-11-13T09:47:15.780Z,93.90
2018-11-13T09:49:51.314Z,93.80
2018-11-13T09:52:26.382Z,93.80
2018-11-13T09:55:01.425Z,93.80
2018-11-13T09:57:36.894Z,94.30
2018-11-13T10:00:17.343Z,94.20
2018-11-13T10:03:02.017Z,94.00
2018-11-13T10:05:36.907Z,94.00
2018-11-13T10:08:11.704Z,93.40
2018-11-13T10:10:49.575Z,93.20
2018-11-13T10:13:24.465Z,93.20
2018-11-13T10:15:59.382Z,93.40
2018-11-13T10:18:40.901Z,93.20
2018-11-13T10:21:15.976Z,92.90
2018-11-13T10:23:51.504Z,92.50
2018-11-13T10:26:26.525Z,93.60
2018-11-13T10:29:01.359Z,92.40
2018-11-13T10:31:36.091Z,92.20
2018-11-13T10:34:11.311Z,91.80
2018-11-13T10:36:46.310Z,91.60
2018-11-13T10:39:21.052Z,92.10
2018-11-13T10:41:56.504Z,91.70
2018-11-13T10:44:31.311Z,92.20
2018-11-13T10:47:06.300Z,92.20
2018-11-13T10:49:41.928Z,92.00
2018-11-13T10:52:16.870Z,91.90
2018-11-13T10:54:51.779Z,91.00
2018-11-13T10:57:27.093Z,91.30
2018-11-13T11:00:02.499Z,91.30
2018-11-13T11:02:43.074Z,91.50
2018-11-13T11:05:17.977Z,91.20
2018-11-13T11:07:53.480Z,91.00
2018-11-13T11:10:28.499Z,91.20
2018-11-13T11:13:03.444Z,91.00
2018-11-13T11:15:38.795Z,90.60
2018-11-13T11:18:15.357Z,90.50
2018-11-13T11:20:51.795Z,90.80
2018-11-13T11:23:26.914Z,90.90
2018-11-13T11:26:01.982Z,90.60
2018-11-13T11:28:37.006Z,90.20
2018-11-13T11:31:13.198Z,91.00
2018-11-13T11:33:48.856Z,91.00
2018-11-13T11:36:23.935Z,90.50
2018-11-13T11:38:59.576Z,90.70
2018-11-13T11:41:34.805Z,90.40
2018-11-13T11:44:10.006Z,90.10
2018-11-13T11:46:45.029Z,90.50
2018-11-13T11:49:19.963Z,90.20
2018-11-13T11:51:54.825Z,90.50
2018-11-13T11:54:29.513Z,90.30
2018-11-13T11:57:04.778Z,90.30
2018-11-13T11:59:39.771Z,90.10
2018-11-13T12:02:14.881Z,90.10
2018-11-13T12:04:50.421Z,90.40
2018-11-13T12:07:25.565Z,90.60
2018-11-13T12:10:00.399Z,90.70
2018-11-13T12:12:35.191Z,90.50
2018-11-13T12:15:11.999Z,90.50
2018-11-13T12:17:47.062Z,90.20
2018-11-13T12:20:22.322Z,90.10
2018-11-13T12:22:57.368Z,89.90
2018-11-13T12:25:32.497Z,89.80
2018-11-13T12:28:07.383Z,90.00
2018-11-13T12:30:42.559Z,90.20
2018-11-13T12:33:17.346Z,90.00
2018-11-13T12:35:52.338Z,90.30
2018-11-13T12:38:28.062Z,90.30
2018-11-13T12:41:02.835Z,90.30
2018-11-13T12:43:37.790Z,88.90
2018-11-13T12:46:13.320Z,87.70
2018-11-13T12:48:48.295Z,87.90
2018-11-13T12:51:28.966Z,89.00
2018-11-13T12:54:04.290Z,88.60
2018-11-13T12:56:38.967Z,87.90
2018-11-13T12:59:14.153Z,88.30
2018-11-13T13:01:49.471Z,88.60
2018-11-13T13:04:24.562Z,88.40
2018-11-13T13:06:59.414Z,88.50
2018-11-13T13:09:36.074Z,88.80
2018-11-13T13:12:11.150Z,88.80
2018-11-13T13:14:45.905Z,88.40
2018-11-13T13:17:20.986Z,89.00
2018-11-13T13:19:55.969Z,89.60
2018-11-13T13:22:30.799Z,88.20
2018-11-13T13:25:07.111Z,88.30
2018-11-13T13:27:41.775Z,89.40
2018-11-13T13:30:18.398Z,89.00
2018-11-13T13:32:53.532Z,88.80
2018-11-13T13:35:37.638Z,89.10
2018-11-13T13:38:12.481Z,90.10
2018-11-13T13:40:49.083Z,90.30
2018-11-13T13:43:24.876Z,90.10
2018-11-13T13:46:00.076Z,90.40
2018-11-13T13:48:34.707Z,90.20
2018-11-13T13:51:10.082Z,90.40
2018-11-13T13:53:44.897Z,90.30
2018-11-13T13:56:20.894Z,90.60
2018-11-13T13:58:56.266Z,90.70
2018-11-13T14:01:32.403Z,90.50
2018-11-13T14:04:07.644Z,90.80
2018-11-13T14:06:42.927Z,91.20
2018-11-13T14:09:18.068Z,91.30
2018-11-13T14:11:53.400Z,91.60
2018-11-13T14:14:28.394Z,91.00
2018-11-13T14:17:04.340Z,91.20
2018-11-13T14:19:39.744Z,91.00
2018-11-13T14:22:15.346Z,90.40
2018-11-13T14:24:50.343Z,90.50
2018-11-13T14:27:25.375Z,90.70
2018-11-13T14:30:00.234Z,90.10
2018-11-13T14:32:35.732Z,90.10
2018-11-13T14:35:10.891Z,90.30
2018-11-13T14:37:46.604Z,89.80
2018-11-13T14:40:31.878Z,89.40
2018-11-13T14:43:07.397Z,89.60
2018-11-13T14:45:42.628Z,89.50
2018-11-13T14:48:17.723Z,89.70
2018-11-13T14:50:53.308Z,89.70
2018-11-13T14:53:28.546Z,89.80
2018-11-13T14:56:04.271Z,89.20
2018-11-13T14:58:39.392Z,89.50
2018-11-13T15:01:14.674Z,89.50
2018-11-13T15:03:49.699Z,89.80
2018-11-13T15:06:24.562Z,89.60
2018-11-13T15:08:59.863Z,89.20
2018-11-13T15:11:35.623Z,89.20
2018-11-13T15:14:11.198Z,89.00
2018-11-13T15:16:46.223Z,88.60
2018-11-13T15:19:20.964Z,88.70
2018-11-13T15:21:55.976Z,88.70
2018-11-13T15:24:31.079Z,89.10
2018-11-13T15:27:06.471Z,89.10
2018-11-13T15:29:41.859Z,88.60
2018-11-13T15:32:23.503Z,88.60
2018-11-13T15:34:58.483Z,88.30
2018-11-13T15:37:33.364Z,87.90
2018-11-13T15:40:10.699Z,87.70
2018-11-13T15:42:46.081Z,87.90
2018-11-13T15:45:21.636Z,88.30
2018-11-13T15:47:57.809Z,88.60
2018-11-13T15:50:33.675Z,88.70
2018-11-13T15:53:09.454Z,89.10
2018-11-13T15:55:44.150Z,89.70
2018-11-13T15:58:19.248Z,90.20
2018-11-13T16:00:54.349Z,90.60
2018-11-13T16:03:34.037Z,90.80
2018-11-13T16:06:09.163Z,90.90
2018-11-13T16:08:44.474Z,90.90
2018-11-13T16:11:19.367Z,90.70
2018-11-13T16:13:54.967Z,90.50
2018-11-13T16:16:30.746Z,90.70
2018-11-13T16:19:06.230Z,90.90
2018-11-13T16:21:41.317Z,90.70
2018-11-13T16:24:17.150Z,90.90
2018-11-13T16:26:52.003Z,90.90
2018-11-13T16:29:26.823Z,91.70
2018-11-13T16:32:01.976Z,91.50
2018-11-13T16:34:36.812Z,92.10
2018-11-13T16:37:12.071Z,92.10
2018-11-13T16:39:46.976Z,92.40
2018-11-13T16:42:21.783Z,92.70
2018-11-13T16:44:56.727Z,92.70
2018-11-13T16:47:32.835Z,92.40
2018-11-13T16:50:12.347Z,92.50
2018-11-13T16:52:47.650Z,92.40
2018-11-13T16:55:27.776Z,92.00
2018-11-13T16:58:03.908Z,91.80
2018-11-13T17:00:38.847Z,92.10
2018-11-13T17:03:14.675Z,92.20
2018-11-13T17:05:50.028Z,92.30
2018-11-13T17:08:24.947Z,92.40
2018-11-13T17:11:00.275Z,92.70
2018-11-13T17:13:41.890Z,92.80
2018-11-13T17:16:17.040Z,92.90
2018-11-13T17:18:52.038Z,92.70
2018-11-13T17:21:27.449Z,92.70
2018-11-13T17:24:02.387Z,93.00
2018-11-13T17:26:37.279Z,93.00
2018-11-13T17:29:12.040Z,93.00
2018-11-13T17:31:47.996Z,92.80
2018-11-13T17:34:22.958Z,92.80
2018-11-13T17:36:57.975Z,92.80
2018-11-13T17:39:32.886Z,92.80
2018-11-13T17:42:07.662Z,92.80
2018-11-13T17:44:43.474Z,93.00
2018-11-13T17:47:18.541Z,92.90
2018-11-13T17:49:53.648Z,92.70
2018-11-13T17:52:28.791Z,92.60
2018-11-13T17:55:04.467Z,92.90
2018-11-13T17:57:39.969Z,92.80
2018-11-13T18:00:34.278Z,92.80
2018-11-13T18:03:10.431Z,92.80
2018-11-13T18:05:46.507Z,92.60
2018-11-13T18:08:21.493Z,92.90
2018-11-13T18:10:56.322Z,92.90
2018-11-13T18:13:31.273Z,92.80
2018-11-13T18:16:06.461Z,93.00
2018-11-13T18:18:41.635Z,93.00
2018-11-13T18:21:16.584Z,93.30
2018-11-13T18:23:51.667Z,92.90
2018-11-13T18:26:26.953Z,93.10
2018-11-13T18:29:02.027Z,93.30
2018-11-13T18:31:37.799Z,93.40
2018-11-13T18:34:12.901Z,93.50
2018-11-13T18:36:48.462Z,93.60
2018-11-13T18:39:23.368Z,93.60
2018-11-13T18:41:58.769Z,93.50
2018-11-13T18:44:34.065Z,93.50
2018-11-13T18:47:10.476Z,93.40
2018-11-13T18:49:46.006Z,93.30
2018-11-13T18:52:21.429Z,93.10
2018-11-13T18:54:57.572Z,93.30
2018-11-13T18:57:32.600Z,93.50
2018-11-13T19:00:12.258Z,93.50
2018-11-13T19:02:47.963Z,93.60
2018-11-13T19:05:24.376Z,93.60
2018-11-13T19:08:00.558Z,93.60
2018-11-13T19:10:37.776Z,93.30
2018-11-13T19:13:14.908Z,93.60
2018-11-13T19:15:54.136Z,93.50
2018-11-13T19:18:29.404Z,93.50
2018-11-13T19:21:05.347Z,93.50
2018-11-13T19:23:40.328Z,93.60
2018-11-13T19:26:15.641Z,93.60
2018-11-13T19:28:50.719Z,93.60
2018-11-13T19:31:25.778Z,93.40
2018-11-13T19:34:00.976Z,93.50
2018-11-13T19:36:35.956Z,93.40
2018-11-13T19:39:12.182Z,93.80
2018-11-13T19:41:47.408Z,93.60
2018-11-13T19:44:22.743Z,93.70
2018-11-13T19:46:57.762Z,94.00
2018-11-13T19:49:32.863Z,93.80
2018-11-13T19:52:07.960Z,93.70
2018-11-13T19:54:43.198Z,93.40
2018-11-13T19:57:18.119Z,94.20
2018-11-13T19:59:53.332Z,94.30
2018-11-13T20:02:28.346Z,94.10
2018-11-13T20:05:03.589Z,93.70
2018-11-13T20:07:39.593Z,93.70
2018-11-13T20:10:17.135Z,93.80
2018-11-13T20:12:53.351Z,93.60
2018-11-13T20:15:28.869Z,93.70
2018-11-13T20:18:03.809Z,93.70
2018-11-13T20:20:38.687Z,93.70
2018-11-13T20:23:13.551Z,93.70
2018-11-13T20:25:49.400Z,93.80
2018-11-13T20:28:24.801Z,94.00
2018-11-13T20:31:00.261Z,94.50
2018-11-13T20:33:35.136Z,94.20
2018-11-13T20:36:10.293Z,94.50
2018-11-13T20:38:45.168Z,94.10
2018-11-13T20:41:20.012Z,93.40
2018-11-13T20:43:55.383Z,93.30
2018-11-13T20:46:30.375Z,93.70
2018-11-13T20:49:05.746Z,93.70
2018-11-13T20:51:41.154Z,93.60
2018-11-13T20:54:16.212Z,93.60
2018-11-13T20:56:51.208Z,93.80
2018-11-13T20:59:26.084Z,93.90
2018-11-13T21:02:01.556Z,94.10
2018-11-13T21:04:37.536Z,94.10
2018-11-13T21:07:13.079Z,94.10
2018-11-13T21:09:48.462Z,94.00
2018-11-13T21:12:23.434Z,93.90
2018-11-13T21:14:58.845Z,93.90
2018-11-13T21:17:33.711Z,93.90
2018-11-13T21:20:11.153Z,93.90
2018-11-13T21:22:46.035Z,94.00
2018-11-13T21:25:22.859Z,94.10
2018-11-13T21:27:59.829Z,93.90
2018-11-13T21:30:35.697Z,94.00
2018-11-13T21:33:10.781Z,93.70
2018-11-13T21:35:45.597Z,93.50
2018-11-13T21:38:20.708Z,93.80
2018-11-13T21:40:55.467Z,93.90
2018-11-13T21:43:30.693Z,93.90
2018-11-13T21:46:05.963Z,94.00
2018-11-13T21:48:41.039Z,93.90
2018-11-13T21:51:15.884Z,93.80
2018-11-13T21:53:50.685Z,93.70
2018-11-13T21:56:26.718Z,94.00
2018-11-13T21:59:01.539Z,94.40
2018-11-13T22:01:36.491Z,94.10
2018-11-13T22:04:13.157Z,93.70
2018-11-13T22:06:49.172Z,94.10
2018-11-13T22:09:25.858Z,94.30
2018-11-13T22:12:00.742Z,94.20
2018-11-13T22:14:36.346Z,94.00
2018-11-13T22:17:10.992Z,93.90
2018-11-13T22:19:45.992Z,93.90
2018-11-13T22:22:20.717Z,93.50
2018-11-13T22:24:56.087Z,93.50
2018-11-13T22:27:31.094Z,93.40
2018-11-13T22:30:08.230Z,93.30
2018-11-13T22:32:43.392Z,93.50
2018-11-13T22:35:18.923Z,93.70
2018-11-13T22:37:54.145Z,93.70
2018-11-13T22:40:29.561Z,93.90
2018-11-13T22:43:05.093Z,93.90
2018-11-13T22:45:40.042Z,93.80
2018-11-13T22:48:14.750Z,93.70
2018-11-13T22:50:49.607Z,94.20
2018-11-13T22:53:25.377Z,94.00
2018-11-13T22:56:00.121Z,94.00
2018-11-13T22:58:34.943Z,94.00
2018-11-13T23:01:10.145Z,94.40
2018-11-13T23:03:45.285Z,94.00
2018-11-13T23:06:20.767Z,94.00
2018-11-13T23:08:56.162Z,94.20
2018-11-13T23:11:31.027Z,94.30
2018-11-13T23:14:06.330Z,93.90
2018-11-13T23:16:42.613Z,93.80
2018-11-13T23:19:17.560Z,93.70
2018-11-13T23:21:52.444Z,93.70
2018-11-13T23:24:27.614Z,93.70
2018-11-13T23:27:03.203Z,93.90
2018-11-13T23:29:38.595Z,93.90
2018-11-13T23:32:13.743Z,94.30
2018-11-13T23:34:48.807Z,94.00
2018-11-13T23:37:24.788Z,93.70
2018-11-13T23:39:59.689Z,94.00
2018-11-13T23:42:34.511Z,93.70
2018-11-13T23:45:10.047Z,93.80
2018-11-13T23:47:46.293Z,93.90
2018-11-13T23:50:21.585Z,93.70
2018-11-13T23:52:56.806Z,93.60
2018-11-13T23:55:31.534Z,93.70
2018-11-13T23:58:07.099Z,93.60
